sensor_id;sensor_type;location;lat;lon;timestamp;pressure;altitude;pressure_sealevel;temperature;humidity
36828;BME280;22766;48.042;11.192;2023-03-20T00:03:47;95209.44;;;7.35;100.00
36828;BME280;22766;48.042;11.192;2023-03-20T00:08:44;95214.56;;;7.35;100.00
36828;BME280;22766;48.042;11.192;2023-03-20T00:13:59;95214.03;;;7.62;100.00
36828;BME280;22766;48.042;11.192;2023-03-20T00:16:31;95217.44;;;7.72;100.00
36828;BME280;22766;48.042;11.192;2023-03-20T00:18:58;95214.75;;;7.74;100.00
36828;BME280;22766;48.042;11.192;2023-03-20T00:21:25;95210.28;;;7.76;100.00
36828;BME280;22766;48.042;11.192;2023-03-20T00:23:54;95224.44;;;8.00;100.00
36828;BME280;22766;48.042;11.192;2023-03-20T00:26:32;95214.44;;;7.97;100.00
36828;BME280;22766;48.042;11.192;2023-03-20T00:29:01;95210.75;;;7.90;100.00
36828;BME280;22766;48.042;11.192;2023-03-20T00:31:30;95211.66;;;7.80;100.00
36828;BME280;22766;48.042;11.192;2023-03-20T00:34:03;95210.81;;;7.70;100.00
36828;BME280;22766;48.042;11.192;2023-03-20T00:36:31;95213.00;;;7.74;100.00
36828;BME280;22766;48.042;11.192;2023-03-20T00:38:58;95218.44;;;7.81;100.00
36828;BME280;22766;48.042;11.192;2023-03-20T00:41:36;95213.31;;;7.81;100.00
36828;BME280;22766;48.042;11.192;2023-03-20T00:44:30;95215.28;;;7.77;100.00
36828;BME280;22766;48.042;11.192;2023-03-20T00:47:05;95214.22;;;7.80;100.00
36828;BME280;22766;48.042;11.192;2023-03-20T00:49:36;95221.66;;;7.83;100.00
36828;BME280;22766;48.042;11.192;2023-03-20T00:52:05;95213.31;;;7.81;100.00
36828;BME280;22766;48.042;11.192;2023-03-20T00:54:32;95219.13;;;7.92;100.00
36828;BME280;22766;48.042;11.192;2023-03-20T00:57:05;95211.72;;;7.99;100.00
36828;BME280;22766;48.042;11.192;2023-03-20T00:59:35;95211.75;;;8.08;100.00
36828;BME280;22766;48.042;11.192;2023-03-20T01:02:04;95212.09;;;7.94;100.00
36828;BME280;22766;48.042;11.192;2023-03-20T01:04:37;95208.31;;;7.89;100.00
36828;BME280;22766;48.042;11.192;2023-03-20T01:07:05;95209.53;;;7.94;100.00
36828;BME280;22766;48.042;11.192;2023-03-20T01:09:34;95204.41;;;7.94;100.00
36828;BME280;22766;48.042;11.192;2023-03-20T01:12:02;95208.16;;;7.90;100.00
36828;BME280;22766;48.042;11.192;2023-03-20T01:14:29;95217.50;;;7.82;100.00
36828;BME280;22766;48.042;11.192;2023-03-20T01:16:56;95214.34;;;7.69;100.00
36828;BME280;22766;48.042;11.192;2023-03-20T01:19:23;95206.84;;;7.86;100.00
36828;BME280;22766;48.042;11.192;2023-03-20T01:21:50;95210.84;;;7.79;100.00
36828;BME280;22766;48.042;11.192;2023-03-20T01:24:17;95206.81;;;7.77;100.00
36828;BME280;22766;48.042;11.192;2023-03-20T01:26:44;95212.66;;;7.88;100.00
36828;BME280;22766;48.042;11.192;2023-03-20T01:29:23;95204.34;;;7.75;100.00
36828;BME280;22766;48.042;11.192;2023-03-20T01:31:51;95205.31;;;7.84;100.00
36828;BME280;22766;48.042;11.192;2023-03-20T01:34:19;95206.66;;;7.78;100.00
36828;BME280;22766;48.042;11.192;2023-03-20T01:36:52;95199.44;;;7.63;100.00
36828;BME280;22766;48.042;11.192;2023-03-20T01:39:21;95203.88;;;7.61;100.00
36828;BME280;22766;48.042;11.192;2023-03-20T01:41:51;95205.22;;;7.55;100.00
36828;BME280;22766;48.042;11.192;2023-03-20T01:44:28;95204.38;;;7.85;100.00
36828;BME280;22766;48.042;11.192;2023-03-20T01:46:58;95208.81;;;7.83;100.00
36828;BME280;22766;48.042;11.192;2023-03-20T01:51:59;95206.16;;;7.84;100.00
36828;BME280;22766;48.042;11.192;2023-03-20T01:54:32;95208.41;;;7.78;100.00
36828;BME280;22766;48.042;11.192;2023-03-20T01:57:22;95208.47;;;7.57;100.00
36828;BME280;22766;48.042;11.192;2023-03-20T02:00:13;95197.66;;;7.53;100.00
36828;BME280;22766;48.042;11.192;2023-03-20T02:02:43;95197.91;;;7.60;100.00
36828;BME280;22766;48.042;11.192;2023-03-20T02:05:17;95202.56;;;7.66;100.00
36828;BME280;22766;48.042;11.192;2023-03-20T02:07:50;95197.59;;;7.74;100.00
36828;BME280;22766;48.042;11.192;2023-03-20T02:10:19;95195.50;;;7.58;100.00
36828;BME280;22766;48.042;11.192;2023-03-20T02:12:55;95197.72;;;7.73;100.00
36828;BME280;22766;48.042;11.192;2023-03-20T02:15:35;95193.72;;;7.99;100.00
36828;BME280;22766;48.042;11.192;2023-03-20T02:18:11;95193.84;;;7.88;100.00
36828;BME280;22766;48.042;11.192;2023-03-20T02:43:23;95193.00;;;7.78;100.00
36828;BME280;22766;48.042;11.192;2023-03-20T02:48:55;95199.16;;;7.66;100.00
36828;BME280;22766;48.042;11.192;2023-03-20T03:02:14;95196.13;;;7.51;100.00
36828;BME280;22766;48.042;11.192;2023-03-20T03:04:51;95200.25;;;7.63;100.00
36828;BME280;22766;48.042;11.192;2023-03-20T03:07:24;95198.56;;;7.52;100.00
36828;BME280;22766;48.042;11.192;2023-03-20T03:10:08;95201.28;;;7.51;100.00
36828;BME280;22766;48.042;11.192;2023-03-20T03:12:39;95204.00;;;7.59;100.00
36828;BME280;22766;48.042;11.192;2023-03-20T03:15:28;95207.50;;;7.58;100.00
36828;BME280;22766;48.042;11.192;2023-03-20T03:17:58;95211.22;;;7.65;100.00
36828;BME280;22766;48.042;11.192;2023-03-20T03:20:29;95208.28;;;7.49;100.00
36828;BME280;22766;48.042;11.192;2023-03-20T03:22:58;95218.38;;;7.41;100.00
36828;BME280;22766;48.042;11.192;2023-03-20T03:25:33;95208.75;;;7.33;100.00
36828;BME280;22766;48.042;11.192;2023-03-20T03:28:07;95214.34;;;7.38;100.00
36828;BME280;22766;48.042;11.192;2023-03-20T03:30:37;95220.22;;;7.50;100.00
36828;BME280;22766;48.042;11.192;2023-03-20T03:33:28;95222.94;;;7.58;100.00
36828;BME280;22766;48.042;11.192;2023-03-20T03:36:12;95225.91;;;7.53;100.00
36828;BME280;22766;48.042;11.192;2023-03-20T03:41:45;95226.63;;;7.65;100.00
36828;BME280;22766;48.042;11.192;2023-03-20T03:49:38;95234.16;;;7.57;100.00
36828;BME280;22766;48.042;11.192;2023-03-20T03:52:13;95222.38;;;7.54;100.00
36828;BME280;22766;48.042;11.192;2023-03-20T03:54:54;95236.50;;;7.39;100.00
36828;BME280;22766;48.042;11.192;2023-03-20T03:57:36;95237.25;;;7.51;100.00
36828;BME280;22766;48.042;11.192;2023-03-20T04:00:10;95239.75;;;7.72;100.00
36828;BME280;22766;48.042;11.192;2023-03-20T04:02:41;95242.97;;;7.64;100.00
36828;BME280;22766;48.042;11.192;2023-03-20T04:05:10;95251.09;;;7.60;100.00
36828;BME280;22766;48.042;11.192;2023-03-20T04:07:43;95250.59;;;7.45;100.00
36828;BME280;22766;48.042;11.192;2023-03-20T04:10:11;95257.78;;;7.51;100.00
36828;BME280;22766;48.042;11.192;2023-03-20T04:12:40;95261.38;;;7.60;100.00
36828;BME280;22766;48.042;11.192;2023-03-20T04:15:12;95257.34;;;7.67;100.00
36828;BME280;22766;48.042;11.192;2023-03-20T04:17:40;95262.72;;;7.64;100.00
36828;BME280;22766;48.042;11.192;2023-03-20T04:20:10;95266.66;;;7.68;100.00
36828;BME280;22766;48.042;11.192;2023-03-20T04:22:38;95272.19;;;7.63;100.00
36828;BME280;22766;48.042;11.192;2023-03-20T04:25:09;95261.31;;;7.80;100.00
36828;BME280;22766;48.042;11.192;2023-03-20T04:27:35;95271.63;;;7.60;100.00
36828;BME280;22766;48.042;11.192;2023-03-20T04:30:10;95272.31;;;7.41;100.00
36828;BME280;22766;48.042;11.192;2023-03-20T04:32:56;95276.97;;;7.26;100.00
36828;BME280;22766;48.042;11.192;2023-03-20T04:35:46;95275.53;;;7.13;100.00
36828;BME280;22766;48.042;11.192;2023-03-20T04:38:14;95275.91;;;7.08;100.00
36828;BME280;22766;48.042;11.192;2023-03-20T04:40:43;95277.03;;;6.95;100.00
36828;BME280;22766;48.042;11.192;2023-03-20T04:43:11;95276.78;;;6.98;100.00
36828;BME280;22766;48.042;11.192;2023-03-20T04:45:39;95275.91;;;7.08;100.00
36828;BME280;22766;48.042;11.192;2023-03-20T04:48:07;95277.94;;;6.94;100.00
36828;BME280;22766;48.042;11.192;2023-03-20T04:50:34;95283.97;;;6.83;100.00
36828;BME280;22766;48.042;11.192;2023-03-20T04:53:02;95280.72;;;7.02;100.00
36828;BME280;22766;48.042;11.192;2023-03-20T04:55:29;95284.09;;;7.02;100.00
36828;BME280;22766;48.042;11.192;2023-03-20T04:57:55;95287.50;;;7.03;100.00
36828;BME280;22766;48.042;11.192;2023-03-20T05:00:24;95286.00;;;7.21;100.00
36828;BME280;22766;48.042;11.192;2023-03-20T05:02:51;95292.00;;;7.51;100.00
36828;BME280;22766;48.042;11.192;2023-03-20T05:05:18;95289.16;;;7.54;100.00
36828;BME280;22766;48.042;11.192;2023-03-20T05:07:45;95283.00;;;7.36;100.00
36828;BME280;22766;48.042;11.192;2023-03-20T05:10:22;95288.19;;;7.25;100.00
36828;BME280;22766;48.042;11.192;2023-03-20T05:12:57;95298.25;;;6.97;100.00
36828;BME280;22766;48.042;11.192;2023-03-20T05:15:43;95289.81;;;7.26;100.00
36828;BME280;22766;48.042;11.192;2023-03-20T05:18:35;95292.94;;;7.09;100.00
36828;BME280;22766;48.042;11.192;2023-03-20T05:21:08;95297.91;;;6.90;100.00
36828;BME280;22766;48.042;11.192;2023-03-20T05:23:41;95304.66;;;7.23;100.00
36828;BME280;22766;48.042;11.192;2023-03-20T05:26:26;95305.72;;;7.20;100.00
36828;BME280;22766;48.042;11.192;2023-03-20T05:29:05;95299.72;;;7.31;100.00
36828;BME280;22766;48.042;11.192;2023-03-20T05:31:32;95300.16;;;7.15;100.00
36828;BME280;22766;48.042;11.192;2023-03-20T05:33:58;95309.13;;;6.89;100.00
36828;BME280;22766;48.042;11.192;2023-03-20T05:36:42;95314.28;;;6.89;100.00
36828;BME280;22766;48.042;11.192;2023-03-20T05:39:27;95315.06;;;6.90;100.00
36828;BME280;22766;48.042;11.192;2023-03-20T05:42:05;95311.41;;;7.03;100.00
36828;BME280;22766;48.042;11.192;2023-03-20T05:44:46;95316.41;;;7.05;100.00
36828;BME280;22766;48.042;11.192;2023-03-20T05:47:16;95315.97;;;7.20;100.00
36828;BME280;22766;48.042;11.192;2023-03-20T05:50:03;95320.06;;;7.43;100.00
36828;BME280;22766;48.042;11.192;2023-03-20T05:53:02;95329.69;;;7.10;100.00
36828;BME280;22766;48.042;11.192;2023-03-20T05:55:42;95321.09;;;7.00;100.00
36828;BME280;22766;48.042;11.192;2023-03-20T05:58:29;95324.78;;;7.07;100.00
36828;BME280;22766;48.042;11.192;2023-03-20T06:01:26;95334.06;;;6.98;100.00
36828;BME280;22766;48.042;11.192;2023-03-20T06:04:19;95334.63;;;7.02;100.00
36828;BME280;22766;48.042;11.192;2023-03-20T06:07:02;95333.38;;;6.96;100.00
36828;BME280;22766;48.042;11.192;2023-03-20T06:09:29;95331.75;;;6.84;100.00
36828;BME280;22766;48.042;11.192;2023-03-20T06:11:57;95337.75;;;6.74;100.00
36828;BME280;22766;48.042;11.192;2023-03-20T06:14:25;95336.53;;;6.89;100.00
36828;BME280;22766;48.042;11.192;2023-03-20T06:16:56;95341.59;;;6.79;100.00
36828;BME280;22766;48.042;11.192;2023-03-20T06:19:24;95342.75;;;7.07;100.00
36828;BME280;22766;48.042;11.192;2023-03-20T06:21:51;95339.47;;;6.84;100.00
36828;BME280;22766;48.042;11.192;2023-03-20T06:24:19;95349.03;;;6.82;100.00
36828;BME280;22766;48.042;11.192;2023-03-20T06:26:46;95350.91;;;6.80;100.00
36828;BME280;22766;48.042;11.192;2023-03-20T06:29:13;95351.28;;;7.07;100.00
36828;BME280;22766;48.042;11.192;2023-03-20T06:31:40;95338.16;;;7.01;100.00
36828;BME280;22766;48.042;11.192;2023-03-20T06:34:11;95345.59;;;7.04;100.00
36828;BME280;22766;48.042;11.192;2023-03-20T06:36:42;95341.88;;;6.97;100.00
36828;BME280;22766;48.042;11.192;2023-03-20T06:39:17;95340.63;;;6.91;100.00
36828;BME280;22766;48.042;11.192;2023-03-20T06:41:44;95344.38;;;6.87;100.00
36828;BME280;22766;48.042;11.192;2023-03-20T06:44:11;95344.19;;;7.31;100.00
36828;BME280;22766;48.042;11.192;2023-03-20T06:47:10;95345.38;;;7.27;100.00
36828;BME280;22766;48.042;11.192;2023-03-20T06:49:37;95351.66;;;7.55;100.00
36828;BME280;22766;48.042;11.192;2023-03-20T06:52:04;95344.63;;;7.57;100.00
36828;BME280;22766;48.042;11.192;2023-03-20T06:54:32;95345.50;;;7.46;100.00
36828;BME280;22766;48.042;11.192;2023-03-20T06:56:58;95346.03;;;7.61;100.00
36828;BME280;22766;48.042;11.192;2023-03-20T06:59:25;95348.19;;;7.66;100.00
36828;BME280;22766;48.042;11.192;2023-03-20T07:01:56;95350.13;;;7.73;100.00
36828;BME280;22766;48.042;11.192;2023-03-20T07:04:23;95350.78;;;7.86;100.00
36828;BME280;22766;48.042;11.192;2023-03-20T07:06:55;95353.69;;;8.02;100.00
36828;BME280;22766;48.042;11.192;2023-03-20T07:09:22;95358.97;;;8.01;100.00
36828;BME280;22766;48.042;11.192;2023-03-20T07:11:49;95359.44;;;8.15;100.00
36828;BME280;22766;48.042;11.192;2023-03-20T07:14:16;95361.81;;;8.07;100.00
36828;BME280;22766;48.042;11.192;2023-03-20T07:16:52;95371.97;;;8.29;100.00
36828;BME280;22766;48.042;11.192;2023-03-20T07:19:19;95373.19;;;8.25;100.00
36828;BME280;22766;48.042;11.192;2023-03-20T07:21:53;95373.19;;;8.25;100.00
36828;BME280;22766;48.042;11.192;2023-03-20T07:24:23;95371.09;;;8.49;100.00
36828;BME280;22766;48.042;11.192;2023-03-20T07:26:50;95374.94;;;8.25;100.00
36828;BME280;22766;48.042;11.192;2023-03-20T07:29:18;95386.00;;;8.46;100.00
36828;BME280;22766;48.042;11.192;2023-03-20T07:31:44;95388.94;;;8.41;100.00
36828;BME280;22766;48.042;11.192;2023-03-20T07:34:19;95389.91;;;8.40;100.00
36828;BME280;22766;48.042;11.192;2023-03-20T07:36:46;95386.97;;;8.24;100.00
36828;BME280;22766;48.042;11.192;2023-03-20T07:39:17;95382.44;;;8.37;100.00
36828;BME280;22766;48.042;11.192;2023-03-20T07:41:53;95391.09;;;8.36;100.00
36828;BME280;22766;48.042;11.192;2023-03-20T07:44:42;95384.38;;;8.45;100.00
36828;BME280;22766;48.042;11.192;2023-03-20T07:47:10;95390.13;;;8.68;100.00
36828;BME280;22766;48.042;11.192;2023-03-20T07:49:37;95385.78;;;8.68;100.00
36828;BME280;22766;48.042;11.192;2023-03-20T07:52:06;95378.34;;;8.65;100.00
36828;BME280;22766;48.042;11.192;2023-03-20T07:54:33;95384.03;;;8.69;100.00
36828;BME280;22766;48.042;11.192;2023-03-20T07:57:00;95387.53;;;9.36;100.00
36828;BME280;22766;48.042;11.192;2023-03-20T07:59:27;95390.63;;;9.87;100.00
36828;BME280;22766;48.042;11.192;2023-03-20T08:01:53;95384.81;;;9.76;100.00
36828;BME280;22766;48.042;11.192;2023-03-20T08:04:20;95401.13;;;10.32;100.00
36828;BME280;22766;48.042;11.192;2023-03-20T08:06:49;95393.47;;;10.50;100.00
36828;BME280;22766;48.042;11.192;2023-03-20T08:09:17;95392.53;;;10.41;100.00
36828;BME280;22766;48.042;11.192;2023-03-20T08:11:44;95392.19;;;10.07;100.00
36828;BME280;22766;48.042;11.192;2023-03-20T08:14:11;95389.38;;;10.01;100.00
36828;BME280;22766;48.042;11.192;2023-03-20T08:16:37;95387.88;;;10.08;100.00
36828;BME280;22766;48.042;11.192;2023-03-20T08:19:04;95388.94;;;10.05;100.00
36828;BME280;22766;48.042;11.192;2023-03-20T08:21:32;95386.66;;;10.21;100.00
36828;BME280;22766;48.042;11.192;2023-03-20T08:23:59;95384.88;;;10.12;100.00
36828;BME280;22766;48.042;11.192;2023-03-20T08:26:26;95373.22;;;10.18;100.00
36828;BME280;22766;48.042;11.192;2023-03-20T08:28:53;95375.63;;;10.56;100.00
36828;BME280;22766;48.042;11.192;2023-03-20T08:31:20;95379.72;;;10.86;100.00
36828;BME280;22766;48.042;11.192;2023-03-20T08:33:47;95379.50;;;10.70;100.00
36828;BME280;22766;48.042;11.192;2023-03-20T08:36:15;95378.13;;;10.48;100.00
36828;BME280;22766;48.042;11.192;2023-03-20T08:38:42;95383.47;;;10.37;100.00
36828;BME280;22766;48.042;11.192;2023-03-20T08:41:09;95375.34;;;10.22;100.00
36828;BME280;22766;48.042;11.192;2023-03-20T08:43:35;95375.47;;;10.30;100.00
36828;BME280;22766;48.042;11.192;2023-03-20T08:46:03;95368.31;;;10.52;100.00
36828;BME280;22766;48.042;11.192;2023-03-20T08:48:30;95371.28;;;10.29;100.00
36828;BME280;22766;48.042;11.192;2023-03-20T08:50:56;95365.41;;;10.37;100.00
36828;BME280;22766;48.042;11.192;2023-03-20T08:53:23;95367.56;;;10.69;100.00
36828;BME280;22766;48.042;11.192;2023-03-20T08:55:51;95370.25;;;10.94;100.00
36828;BME280;22766;48.042;11.192;2023-03-20T08:58:21;95366.38;;;10.63;100.00
36828;BME280;22766;48.042;11.192;2023-03-20T09:00:48;95373.56;;;10.69;100.00
36828;BME280;22766;48.042;11.192;2023-03-20T09:03:17;95368.59;;;11.03;100.00
36828;BME280;22766;48.042;11.192;2023-03-20T09:05:46;95377.75;;;10.97;100.00
36828;BME280;22766;48.042;11.192;2023-03-20T09:08:13;95378.47;;;10.90;100.00
36828;BME280;22766;48.042;11.192;2023-03-20T09:10:39;95373.53;;;11.14;100.00
36828;BME280;22766;48.042;11.192;2023-03-20T09:13:07;95370.13;;;11.13;100.00
36828;BME280;22766;48.042;11.192;2023-03-20T09:15:53;95386.22;;;11.07;100.00
36828;BME280;22766;48.042;11.192;2023-03-20T09:18:22;95380.38;;;10.61;100.00
36828;BME280;22766;48.042;11.192;2023-03-20T09:20:49;95384.00;;;10.68;100.00
36828;BME280;22766;48.042;11.192;2023-03-20T09:23:17;95387.66;;;10.38;100.00
36828;BME280;22766;48.042;11.192;2023-03-20T09:25:44;95379.44;;;10.62;100.00
36828;BME280;22766;48.042;11.192;2023-03-20T09:28:10;95388.06;;;10.70;100.00
36828;BME280;22766;48.042;11.192;2023-03-20T09:30:37;95377.50;;;10.91;100.00
36828;BME280;22766;48.042;11.192;2023-03-20T09:33:04;95384.09;;;11.03;100.00
36828;BME280;22766;48.042;11.192;2023-03-20T09:35:31;95381.69;;;11.37;100.00
36828;BME280;22766;48.042;11.192;2023-03-20T09:37:58;95383.25;;;11.47;100.00
36828;BME280;22766;48.042;11.192;2023-03-20T09:40:29;95384.69;;;11.50;100.00
36828;BME280;22766;48.042;11.192;2023-03-20T09:43:09;95385.00;;;11.47;100.00
36828;BME280;22766;48.042;11.192;2023-03-20T09:45:47;95372.09;;;11.47;100.00
36828;BME280;22766;48.042;11.192;2023-03-20T09:50:59;95374.00;;;11.27;100.00
36828;BME280;22766;48.042;11.192;2023-03-20T09:53:44;95371.25;;;11.28;100.00
36828;BME280;22766;48.042;11.192;2023-03-20T09:56:22;95369.00;;;12.04;98.13
36828;BME280;22766;48.042;11.192;2023-03-20T09:58:58;95367.84;;;12.58;93.18
36828;BME280;22766;48.042;11.192;2023-03-20T10:01:30;95374.72;;;12.41;92.29
36828;BME280;22766;48.042;11.192;2023-03-20T10:04:03;95370.84;;;13.13;87.96
36828;BME280;22766;48.042;11.192;2023-03-20T10:06:34;95361.59;;;13.18;85.52
36828;BME280;22766;48.042;11.192;2023-03-20T10:09:03;95368.22;;;12.71;86.69
36828;BME280;22766;48.042;11.192;2023-03-20T10:11:43;95362.69;;;12.66;92.34
36828;BME280;22766;48.042;11.192;2023-03-20T10:14:26;95363.00;;;12.29;92.52
36828;BME280;22766;48.042;11.192;2023-03-20T10:19:31;95359.66;;;12.11;92.60
36828;BME280;22766;48.042;11.192;2023-03-20T10:22:13;95358.81;;;12.70;85.96
36828;BME280;22766;48.042;11.192;2023-03-20T10:33:21;95354.41;;;15.57;54.33
36828;BME280;22766;48.042;11.192;2023-03-20T10:36:25;95352.22;;;14.68;65.12
36828;BME280;22766;48.042;11.192;2023-03-20T10:39:26;95351.75;;;13.94;71.70
36828;BME280;22766;48.042;11.192;2023-03-20T10:41:57;95349.94;;;14.19;66.75
36828;BME280;22766;48.042;11.192;2023-03-20T10:44:32;95341.06;;;13.73;70.18
36828;BME280;22766;48.042;11.192;2023-03-20T10:47:02;95342.88;;;12.98;76.23
36828;BME280;22766;48.042;11.192;2023-03-20T10:49:38;95340.72;;;12.36;75.36
36828;BME280;22766;48.042;11.192;2023-03-20T10:52:13;95334.03;;;12.59;77.32
36828;BME280;22766;48.042;11.192;2023-03-20T10:54:45;95339.56;;;12.72;73.15
36828;BME280;22766;48.042;11.192;2023-03-20T10:57:23;95330.72;;;12.91;79.12
36828;BME280;22766;48.042;11.192;2023-03-20T10:59:51;95335.22;;;12.81;76.14
36828;BME280;22766;48.042;11.192;2023-03-20T11:02:20;95337.75;;;13.14;73.74
36828;BME280;22766;48.042;11.192;2023-03-20T11:04:47;95338.63;;;13.31;75.87
36828;BME280;22766;48.042;11.192;2023-03-20T11:10:11;95322.34;;;12.55;85.91
36828;BME280;22766;48.042;11.192;2023-03-20T11:12:39;95325.25;;;12.52;88.56
36828;BME280;22766;48.042;11.192;2023-03-20T11:15:42;95327.88;;;13.10;77.82
36828;BME280;22766;48.042;11.192;2023-03-20T11:18:11;95322.88;;;12.75;78.13
36828;BME280;22766;48.042;11.192;2023-03-20T11:20:45;95324.41;;;13.01;84.36
36828;BME280;22766;48.042;11.192;2023-03-20T11:23:16;95325.03;;;12.79;80.26
36828;BME280;22766;48.042;11.192;2023-03-20T11:25:49;95328.03;;;13.17;79.72
36828;BME280;22766;48.042;11.192;2023-03-20T11:31:03;95320.63;;;13.70;63.60
36828;BME280;22766;48.042;11.192;2023-03-20T11:33:36;95327.28;;;12.74;76.09
36828;BME280;22766;48.042;11.192;2023-03-20T11:36:26;95321.94;;;12.34;75.59
36828;BME280;22766;48.042;11.192;2023-03-20T11:39:13;95317.84;;;11.72;81.93
36828;BME280;22766;48.042;11.192;2023-03-20T11:41:54;95326.81;;;11.86;89.09
36828;BME280;22766;48.042;11.192;2023-03-20T11:44:26;95323.47;;;12.19;84.16
36828;BME280;22766;48.042;11.192;2023-03-20T11:47:02;95323.72;;;12.34;83.81
36828;BME280;22766;48.042;11.192;2023-03-20T11:49:31;95325.91;;;11.95;89.01
36828;BME280;22766;48.042;11.192;2023-03-20T11:52:11;95325.91;;;11.95;89.17
36828;BME280;22766;48.042;11.192;2023-03-20T11:54:46;95330.47;;;12.27;84.63
36828;BME280;22766;48.042;11.192;2023-03-20T11:57:33;95332.69;;;11.70;91.05
36828;BME280;22766;48.042;11.192;2023-03-20T12:02:30;95334.56;;;11.25;100.00
36828;BME280;22766;48.042;11.192;2023-03-20T12:05:00;95327.97;;;11.48;98.62
36828;BME280;22766;48.042;11.192;2023-03-20T12:07:35;95331.63;;;11.38;100.00
36828;BME280;22766;48.042;11.192;2023-03-20T12:13:03;95319.50;;;11.20;100.00
36828;BME280;22766;48.042;11.192;2023-03-20T12:15:36;95322.53;;;11.16;100.00
36828;BME280;22766;48.042;11.192;2023-03-20T12:18:27;95325.69;;;11.45;100.00
36828;BME280;22766;48.042;11.192;2023-03-20T12:23:44;95321.63;;;11.60;97.09
36828;BME280;22766;48.042;11.192;2023-03-20T12:26:35;95311.13;;;11.62;96.05
36828;BME280;22766;48.042;11.192;2023-03-20T12:29:37;95310.06;;;11.72;94.84
36828;BME280;22766;48.042;11.192;2023-03-20T12:32:19;95304.16;;;11.80;94.23
36828;BME280;22766;48.042;11.192;2023-03-20T12:35:37;95305.25;;;12.29;94.39
36828;BME280;22766;48.042;11.192;2023-03-20T12:37:40;95307.72;;;12.96;92.51
36828;BME280;22766;48.042;11.192;2023-03-20T12:40:15;95294.34;;;13.25;89.75
36828;BME280;22766;48.042;11.192;2023-03-20T12:43:11;95299.53;;;13.49;87.64
36828;BME280;22766;48.042;11.192;2023-03-20T12:51:10;95294.22;;;17.06;65.61
36828;BME280;22766;48.042;11.192;2023-03-20T13:07:21;95300.56;;;19.24;40.47
36828;BME280;22766;48.042;11.192;2023-03-20T13:12:32;95293.63;;;19.58;41.80
36828;BME280;22766;48.042;11.192;2023-03-20T13:15:21;95302.53;;;20.92;40.76
36828;BME280;22766;48.042;11.192;2023-03-20T13:18:07;95299.13;;;21.36;36.86
36828;BME280;22766;48.042;11.192;2023-03-20T13:20:51;95296.03;;;19.52;41.06
36828;BME280;22766;48.042;11.192;2023-03-20T13:23:30;95289.47;;;18.55;43.91
36828;BME280;22766;48.042;11.192;2023-03-20T13:26:05;95291.59;;;19.46;44.39
36828;BME280;22766;48.042;11.192;2023-03-20T13:28:38;95289.78;;;20.45;41.62
36828;BME280;22766;48.042;11.192;2023-03-20T13:31:33;95278.72;;;19.78;41.29
36828;BME280;22766;48.042;11.192;2023-03-20T13:37:04;95280.94;;;17.43;43.43
36828;BME280;22766;48.042;11.192;2023-03-20T13:45:49;95274.03;;;15.09;53.01
36828;BME280;22766;48.042;11.192;2023-03-20T13:56:35;95261.50;;;14.59;59.33
36828;BME280;22766;48.042;11.192;2023-03-20T14:01:57;95262.19;;;14.83;63.54
36828;BME280;22766;48.042;11.192;2023-03-20T14:04:26;95264.41;;;15.17;59.67
36828;BME280;22766;48.042;11.192;2023-03-20T14:06:57;95258.50;;;16.41;53.19
36828;BME280;22766;48.042;11.192;2023-03-20T14:12:24;95253.72;;;17.10;47.31
36828;BME280;22766;48.042;11.192;2023-03-20T14:14:55;95253.03;;;17.01;43.84
36828;BME280;22766;48.042;11.192;2023-03-20T14:17:30;95252.94;;;16.44;47.86
36828;BME280;22766;48.042;11.192;2023-03-20T14:20:10;95242.41;;;17.45;42.84
36828;BME280;22766;48.042;11.192;2023-03-20T14:22:38;95251.50;;;17.49;43.76
36828;BME280;22766;48.042;11.192;2023-03-20T14:25:17;95240.19;;;16.49;46.08
36828;BME280;22766;48.042;11.192;2023-03-20T14:30:37;95249.84;;;14.55;56.20
36828;BME280;22766;48.042;11.192;2023-03-20T14:35:50;95244.53;;;14.40;56.17
36828;BME280;22766;48.042;11.192;2023-03-20T14:41:07;95245.38;;;14.25;57.99
36828;BME280;22766;48.042;11.192;2023-03-20T14:49:03;95241.34;;;16.97;50.48
36828;BME280;22766;48.042;11.192;2023-03-20T14:51:47;95232.53;;;17.40;47.71
36828;BME280;22766;48.042;11.192;2023-03-20T14:54:29;95245.97;;;16.01;52.59
36828;BME280;22766;48.042;11.192;2023-03-20T14:57:17;95242.34;;;16.02;54.44
36828;BME280;22766;48.042;11.192;2023-03-20T14:59:48;95238.81;;;17.04;46.95
36828;BME280;22766;48.042;11.192;2023-03-20T15:02:26;95244.59;;;17.62;46.42
36828;BME280;22766;48.042;11.192;2023-03-20T15:04:53;95234.69;;;16.59;46.75
36828;BME280;22766;48.042;11.192;2023-03-20T15:07:26;95236.44;;;15.42;50.89
36828;BME280;22766;48.042;11.192;2023-03-20T15:09:56;95233.50;;;14.69;54.63
36828;BME280;22766;48.042;11.192;2023-03-20T15:12:27;95233.59;;;14.06;57.94
36828;BME280;22766;48.042;11.192;2023-03-20T15:14:59;95226.06;;;14.35;60.12
36828;BME280;22766;48.042;11.192;2023-03-20T15:17:37;95230.69;;;16.13;51.93
36828;BME280;22766;48.042;11.192;2023-03-20T15:20:21;95224.94;;;17.45;47.03
36828;BME280;22766;48.042;11.192;2023-03-20T15:25:17;95227.84;;;18.46;41.45
36828;BME280;22766;48.042;11.192;2023-03-20T15:27:44;95229.66;;;16.93;44.87
36828;BME280;22766;48.042;11.192;2023-03-20T15:30:19;95231.13;;;16.60;47.34
36828;BME280;22766;48.042;11.192;2023-03-20T15:32:48;95223.66;;;16.42;48.59
36828;BME280;22766;48.042;11.192;2023-03-20T15:35:17;95224.72;;;16.62;45.42
36828;BME280;22766;48.042;11.192;2023-03-20T15:37:45;95224.31;;;16.30;46.87
36828;BME280;22766;48.042;11.192;2023-03-20T15:42:59;95222.16;;;15.89;48.79
36828;BME280;22766;48.042;11.192;2023-03-20T15:45:31;95224.22;;;16.09;49.05